South Poultney, Vermont
Current Conditions -  °F | °C
As of 5:15 PM on Monday 20 Oct 2014 (Local Time) from KRUT Reporting Station
Overcast Overcast  
Wind Chill: 50°   Ceiling: 7000
Heat Index: 50°   Visibility: 10mi
Dew Point: 36°   Wind: 0mph
Humidity: 58%   Direction: NA
Pressure: 29.93"   Gusts: NA
Location:  43.5323°N, 73.1932°W
Report Text: KRUT 202115Z 00000KT 10SM OVC070 10/02 A2993 RMK AO1
Loading
Personal Weather Stations






























Interactive Weather Map
Tropical Storm Tracking
New forecast layout! Learn more

10-Day Weather Forecast

Advertisements
Track Severe Weather on mobile